createdAt,value
2023-02-25T00:01:20.653Z,7.00
2023-02-25T00:03:48.571Z,7.00
2023-02-25T00:06:17.702Z,6.90
2023-02-25T00:08:46.712Z,7.00
2023-02-25T00:11:15.820Z,6.90
2023-02-25T00:13:44.590Z,6.90
2023-02-25T00:16:13.306Z,6.90
2023-02-25T00:18:44.324Z,6.80
2023-02-25T00:21:15.125Z,6.70
2023-02-25T00:23:45.755Z,6.70
2023-02-25T00:26:13.888Z,6.60
2023-02-25T00:28:41.946Z,6.60
2023-02-25T00:31:10.958Z,6.50
2023-02-25T00:33:41.739Z,6.50
2023-02-25T00:36:11.352Z,6.60
2023-02-25T00:38:39.541Z,6.60
2023-02-25T00:41:12.515Z,6.60
2023-02-25T00:43:42.135Z,6.70
2023-02-25T00:46:10.513Z,6.70
2023-02-25T00:48:38.596Z,6.50
2023-02-25T00:51:08.884Z,6.50
2023-02-25T00:53:37.806Z,6.50
2023-02-25T00:56:07.030Z,6.60
2023-02-25T00:58:38.171Z,6.50
2023-02-25T01:01:07.941Z,6.50
2023-02-25T01:03:35.730Z,6.50
2023-02-25T01:06:03.804Z,6.60
2023-02-25T01:08:31.673Z,6.70
2023-02-25T01:10:59.470Z,6.70
2023-02-25T01:13:27.327Z,6.60
2023-02-25T01:15:56.485Z,6.60
2023-02-25T01:18:24.416Z,6.70
2023-02-25T01:20:52.203Z,6.60
2023-02-25T01:23:20.000Z,6.70
2023-02-25T01:25:47.789Z,6.60
2023-02-25T01:28:15.621Z,6.50
2023-02-25T01:30:43.503Z,6.50
2023-02-25T01:33:12.689Z,6.70
2023-02-25T01:35:40.464Z,6.70
2023-02-25T01:38:08.246Z,6.70
2023-02-25T01:40:37.812Z,6.70
2023-02-25T01:43:07.737Z,6.70
2023-02-25T01:45:38.551Z,6.60
2023-02-25T01:48:13.449Z,6.60
2023-02-25T01:50:48.828Z,6.60
2023-02-25T01:53:21.177Z,6.70
2023-02-25T01:55:50.487Z,6.70
2023-02-25T01:58:18.962Z,6.60
2023-02-25T02:00:46.953Z,6.70
2023-02-25T02:03:19.399Z,6.70
2023-02-25T02:05:56.262Z,6.70
2023-02-25T02:08:26.331Z,6.70
2023-02-25T02:10:54.210Z,6.60
2023-02-25T02:13:22.161Z,6.60
2023-02-25T02:16:04.663Z,6.60
2023-02-25T02:18:36.137Z,6.70
2023-02-25T02:21:20.864Z,6.70
2023-02-25T02:24:15.452Z,6.70
2023-02-25T02:26:54.365Z,6.70
2023-02-25T02:29:59.016Z,6.70
2023-02-25T02:32:35.889Z,6.60
2023-02-25T02:35:12.488Z,6.50
2023-02-25T02:37:47.329Z,6.60
2023-02-25T02:40:23.846Z,6.60
2023-02-25T02:43:05.150Z,6.60
2023-02-25T02:45:40.459Z,6.50
2023-02-25T02:48:12.407Z,6.50
2023-02-25T02:50:44.632Z,6.40
2023-02-25T02:53:15.170Z,6.40
2023-02-25T02:55:47.101Z,6.40
2023-02-25T02:58:19.790Z,6.50
2023-02-25T03:00:51.536Z,6.50
2023-02-25T03:03:23.588Z,6.40
2023-02-25T03:05:54.306Z,6.50
2023-02-25T03:08:25.871Z,6.50
2023-02-25T03:10:53.925Z,6.40
2023-02-25T03:13:21.788Z,6.40
2023-02-25T03:15:50.972Z,6.50
2023-02-25T03:18:25.339Z,6.40
2023-02-25T03:20:54.887Z,6.30
2023-02-25T03:23:27.573Z,6.30
2023-02-25T03:26:03.198Z,6.30
2023-02-25T03:28:34.354Z,6.30
2023-02-25T03:31:07.316Z,6.20
2023-02-25T03:33:41.172Z,6.20
2023-02-25T03:36:12.790Z,6.20
2023-02-25T03:38:45.951Z,6.10
2023-02-25T03:41:16.311Z,6.10
2023-02-25T03:43:48.866Z,6.10
2023-02-25T03:46:19.865Z,6.10
2023-02-25T03:48:51.562Z,6.00
2023-02-25T03:51:22.541Z,6.00
2023-02-25T03:53:51.134Z,6.00
2023-02-25T03:56:19.067Z,6.00
2023-02-25T03:58:46.850Z,6.00
2023-02-25T04:01:18.562Z,6.00
2023-02-25T04:03:46.405Z,5.90
2023-02-25T04:06:16.276Z,5.90
2023-02-25T04:08:44.122Z,6.00
2023-02-25T04:11:11.885Z,5.90
2023-02-25T04:13:39.678Z,5.80
2023-02-25T04:16:09.191Z,5.90
2023-02-25T04:18:37.493Z,5.80
2023-02-25T04:21:06.346Z,5.80
2023-02-25T04:23:35.993Z,5.80
2023-02-25T04:26:04.009Z,5.80
2023-02-25T04:28:31.886Z,5.80
2023-02-25T04:30:59.725Z,5.70
2023-02-25T04:33:27.569Z,5.60
2023-02-25T04:35:55.319Z,5.60
2023-02-25T04:38:23.132Z,5.60
2023-02-25T04:40:53.905Z,5.50
2023-02-25T04:43:21.735Z,5.60
2023-02-25T04:45:50.112Z,5.60
2023-02-25T04:48:24.054Z,5.70
2023-02-25T04:50:51.888Z,5.70
2023-02-25T04:53:19.864Z,5.70
2023-02-25T04:55:47.608Z,5.70
2023-02-25T04:58:16.718Z,5.50
2023-02-25T05:00:48.423Z,5.50
2023-02-25T05:03:16.526Z,5.60
2023-02-25T05:05:44.285Z,5.50
2023-02-25T05:08:12.271Z,5.50
2023-02-25T05:10:40.070Z,5.40
2023-02-25T05:13:07.888Z,5.40
2023-02-25T05:15:37.191Z,5.40
2023-02-25T05:18:05.321Z,5.40
2023-02-25T05:20:33.136Z,5.50
2023-02-25T05:23:01.185Z,5.50
2023-02-25T05:25:28.983Z,5.40
2023-02-25T05:27:56.758Z,5.50
2023-02-25T05:30:24.552Z,5.40
2023-02-25T05:32:53.736Z,5.30
2023-02-25T05:35:21.590Z,5.40
2023-02-25T05:37:49.377Z,5.40
2023-02-25T05:40:17.420Z,5.30
2023-02-25T05:42:49.360Z,5.30
2023-02-25T05:45:18.078Z,5.30
2023-02-25T05:47:46.029Z,5.30
2023-02-25T05:50:15.289Z,5.30
2023-02-25T05:52:43.120Z,5.20
2023-02-25T05:55:12.214Z,5.20
2023-02-25T05:57:40.028Z,5.20
2023-02-25T06:00:14.690Z,5.20
2023-02-25T06:02:44.226Z,5.20
2023-02-25T06:05:12.194Z,5.20
2023-02-25T06:07:41.339Z,5.30
2023-02-25T06:10:10.484Z,5.20
2023-02-25T06:12:38.360Z,5.20
2023-02-25T06:15:06.967Z,5.10
2023-02-25T06:17:34.801Z,5.00
2023-02-25T06:20:03.943Z,5.10
2023-02-25T06:22:31.741Z,5.20
2023-02-25T06:25:00.894Z,5.30
2023-02-25T06:27:29.886Z,5.30
2023-02-25T06:30:00.235Z,5.30
2023-02-25T06:32:28.370Z,5.40
2023-02-25T06:34:56.716Z,5.40
2023-02-25T06:37:24.573Z,5.40
2023-02-25T06:39:53.915Z,5.30
2023-02-25T06:42:23.223Z,5.30
2023-02-25T06:44:51.077Z,5.30
2023-02-25T06:47:18.886Z,5.30
2023-02-25T06:49:46.674Z,5.20
2023-02-25T06:52:14.556Z,5.30
2023-02-25T06:54:42.338Z,5.40
2023-02-25T06:57:10.115Z,5.40
2023-02-25T06:59:39.305Z,5.50
2023-02-25T07:02:08.472Z,5.40
2023-02-25T07:04:36.393Z,5.40
2023-02-25T07:07:04.242Z,5.40
2023-02-25T07:09:32.173Z,5.30
2023-02-25T07:12:00.201Z,5.30
2023-02-25T07:14:28.017Z,5.30
2023-02-25T07:16:57.242Z,5.40
2023-02-25T07:19:25.113Z,5.40
2023-02-25T07:21:52.874Z,5.40
2023-02-25T07:24:20.692Z,5.40
2023-02-25T07:26:48.456Z,5.30
2023-02-25T07:29:16.401Z,5.40
2023-02-25T07:31:45.474Z,5.40
2023-02-25T07:34:14.938Z,5.40
2023-02-25T07:36:43.065Z,5.50
2023-02-25T07:39:13.033Z,5.50
2023-02-25T07:41:40.986Z,5.40
2023-02-25T07:44:09.354Z,5.60
2023-02-25T07:46:37.488Z,5.60
2023-02-25T07:49:05.427Z,5.60
2023-02-25T07:51:34.572Z,5.70
2023-02-25T07:54:02.368Z,5.70
2023-02-25T07:56:31.099Z,5.60
2023-02-25T07:58:58.956Z,5.80
2023-02-25T08:01:29.137Z,5.70
2023-02-25T08:03:59.273Z,5.80
2023-02-25T08:06:28.713Z,5.90
2023-02-25T08:08:58.041Z,5.90
2023-02-25T08:11:27.340Z,6.10
2023-02-25T08:13:55.183Z,6.20
2023-02-25T08:16:23.531Z,6.30
2023-02-25T08:18:52.961Z,6.40
2023-02-25T08:21:23.341Z,6.50
2023-02-25T08:23:51.927Z,6.50
2023-02-25T08:26:22.446Z,6.40
2023-02-25T08:28:51.381Z,6.40
2023-02-25T08:31:20.075Z,6.40
2023-02-25T08:33:52.544Z,6.40
2023-02-25T08:36:22.857Z,6.40
2023-02-25T08:38:51.641Z,6.40
2023-02-25T08:41:21.749Z,6.40
2023-02-25T08:43:51.382Z,6.40
2023-02-25T08:46:21.206Z,6.40
2023-02-25T08:48:50.350Z,6.40
2023-02-25T08:51:18.918Z,6.40
2023-02-25T08:53:46.724Z,6.40
2023-02-25T08:56:17.310Z,6.50
2023-02-25T08:58:46.440Z,6.50
2023-02-25T09:01:16.775Z,6.50
2023-02-25T09:03:52.730Z,6.50
2023-02-25T09:06:22.086Z,6.50
2023-02-25T09:08:50.340Z,6.50
2023-02-25T09:11:18.970Z,6.40
2023-02-25T09:13:48.114Z,6.40
2023-02-25T09:16:17.439Z,6.50
2023-02-25T09:18:45.867Z,6.70
2023-02-25T09:21:14.396Z,6.80
2023-02-25T09:23:42.513Z,6.90
2023-02-25T09:26:10.812Z,6.90
2023-02-25T09:28:38.672Z,7.00
2023-02-25T09:31:07.965Z,7.00
2023-02-25T09:33:37.444Z,7.00
2023-02-25T09:36:07.580Z,6.90
2023-02-25T09:38:35.593Z,6.70
2023-02-25T09:41:03.975Z,6.70
2023-02-25T09:43:39.935Z,6.70
2023-02-25T09:46:13.718Z,6.90
2023-02-25T09:48:52.260Z,7.00
2023-02-25T09:51:22.402Z,7.30
2023-02-25T09:53:55.117Z,7.20
2023-02-25T09:56:26.560Z,7.20
2023-02-25T09:58:57.856Z,7.40
2023-02-25T10:01:35.112Z,7.40
2023-02-25T10:04:09.275Z,7.40
2023-02-25T10:06:39.631Z,7.40
2023-02-25T10:09:16.738Z,7.30
2023-02-25T10:11:53.442Z,7.30
2023-02-25T10:14:40.004Z,7.50
2023-02-25T10:17:18.766Z,7.50
2023-02-25T10:20:05.191Z,7.60
2023-02-25T10:22:46.170Z,7.50
2023-02-25T10:25:17.876Z,7.70
2023-02-25T10:27:49.425Z,7.70
2023-02-25T10:30:24.429Z,7.60
2023-02-25T10:32:55.025Z,7.90
2023-02-25T10:35:27.060Z,8.00
2023-02-25T10:37:54.938Z,8.10
2023-02-25T10:40:24.629Z,8.20
2023-02-25T10:42:55.301Z,8.30
2023-02-25T10:45:26.959Z,8.30
2023-02-25T10:48:14.930Z,8.40
2023-02-25T10:50:46.212Z,8.50
2023-02-25T10:53:16.374Z,8.50
2023-02-25T10:55:52.615Z,8.50
2023-02-25T10:58:27.487Z,8.30
2023-02-25T11:00:59.577Z,8.30
2023-02-25T11:03:32.034Z,8.20
2023-02-25T11:06:11.973Z,8.10
2023-02-25T11:08:40.701Z,8.30
2023-02-25T11:11:17.016Z,8.60
2023-02-25T11:13:45.478Z,8.70
2023-02-25T11:16:15.327Z,9.00
2023-02-25T11:18:44.509Z,8.90
2023-02-25T11:21:15.300Z,8.90
2023-02-25T11:23:47.345Z,8.90
2023-02-25T11:26:18.156Z,8.90
2023-02-25T11:28:49.129Z,8.80
2023-02-25T11:31:19.382Z,8.70
2023-02-25T11:33:57.252Z,8.80
2023-02-25T11:36:30.234Z,9.00
2023-02-25T11:39:09.129Z,9.80
2023-02-25T11:44:30.730Z,10.60
2023-02-25T11:47:22.502Z,11.50
2023-02-25T11:50:08.023Z,12.40
2023-02-25T11:52:41.680Z,13.00
2023-02-25T11:55:21.969Z,13.20
2023-02-25T11:58:02.692Z,12.50
